Denison, Illinois
Current Conditions -  °F | °C
As of 5:15 AM on Sunday 23 Nov 2014 (Local Time) from KAJG Reporting Station
Clear Clear  
Wind Chill: 52°   Ceiling: Unl
Heat Index: 52°   Visibility: 10mi
Dew Point: 37°   Wind: 12mph
Humidity: 58%   Direction: 160°SSE
Pressure: 29.88"   Gusts: 18mph
Location:  38.6278°N, 87.6942°W
Report Text: KAJG 231115Z AUTO 16010G16KT 10SM CLR 11/03 A2988 RMK AO2
Loading
Personal Weather Stations






























Interactive Weather Map New forecast layout! Learn more

10-Day Weather Forecast

Advertisements
Track Severe Weather on mobile